Time;durP1;ratioP1;P1;durP2;ratioP2;P2;SDS_P1;SDS_P2;PMS_P1;PMS_P2;Temp;Humidity;BMP_temperature;BMP_pressure;BME280_temperature;BME280_humidity;BME280_pressure;Samples;Min_cycle;Max_cycle;Signal;HPM_P1;HPM_P2
2023/11/21 00:00:17;;;;;;;0.50;0.50;;;7.20;99.90;;;;;;5102828;28;20861;-80
2023/11/21 00:02:46;;;;;;;0.97;0.73;;;7.10;99.90;;;;;;5108182;28;20448;-80
2023/11/21 00:05:14;;;;;;;0.80;0.53;;;7.20;99.90;;;;;;5103705;28;20475;-81
2023/11/21 00:07:43;;;;;;;5.40;1.13;;;7.20;99.90;;;;;;5103974;28;20453;-81
2023/11/21 00:10:14;;;;;;;0.93;0.40;;;7.20;99.90;;;;;;5105182;28;20443;-81
2023/11/21 00:12:41;;;;;;;0.40;0.30;;;7.40;99.90;;;;;;5108454;28;20444;-81
2023/11/21 00:15:11;;;;;;;0.30;0.30;;;7.20;99.90;;;;;;5108101;28;20519;-81
2023/11/21 00:17:39;;;;;;;2.27;0.80;;;7.20;99.90;;;;;;5110540;28;20444;-81
2023/11/21 00:20:08;;;;;;;1.83;0.57;;;7.20;99.90;;;;;;5110979;28;20445;-81
2023/11/21 00:26:11;;;;;;;0.40;0.30;;;7.20;99.90;;;;;;5103850;28;20420;-81
2023/11/21 00:28:38;;;;;;;0.70;0.70;;;7.20;99.90;;;;;;5111356;28;21075;-80
2023/11/21 00:31:05;;;;;;;0.93;0.50;;;7.20;99.90;;;;;;5111140;28;20444;-81
2023/11/21 00:33:33;;;;;;;0.63;0.60;;;7.30;99.90;;;;;;5110382;28;20928;-81
2023/11/21 00:36:00;;;;;;;0.40;0.40;;;7.70;99.90;;;;;;5108455;28;20526;-80
2023/11/21 00:39:18;;;;;;;1.30;1.03;;;7.30;99.90;;;;;;5107166;28;20497;-80
2023/11/21 00:41:46;;;;;;;0.40;0.40;;;7.30;99.90;;;;;;5108825;28;20822;-81
2023/11/21 00:44:13;;;;;;;0.80;0.40;;;7.30;99.90;;;;;;5105917;28;20495;-80
2023/11/21 00:46:40;;;;;;;0.50;0.40;;;7.40;99.90;;;;;;5105007;28;20472;-80
2023/11/21 00:49:07;;;;;;;1.13;0.40;;;7.30;99.90;;;;;;5105741;28;20503;-81
2023/11/21 00:51:34;;;;;;;1.27;0.60;;;7.30;99.90;;;;;;5105173;28;20507;-81
2023/11/21 00:54:01;;;;;;;0.50;0.40;;;7.40;99.90;;;;;;5107524;28;20472;-81
2023/11/21 00:56:28;;;;;;;0.67;0.67;;;7.40;99.90;;;;;;5108316;28;20511;-81
2023/11/21 00:58:56;;;;;;;0.63;0.63;;;8.40;99.90;;;;;;5107202;28;20460;-81
2023/11/21 01:01:24;;;;;;;0.37;0.33;;;7.40;99.90;;;;;;5106175;28;20458;-81
2023/11/21 01:03:51;;;;;;;0.37;0.37;;;7.40;99.90;;;;;;5105523;28;20527;-80
2023/11/21 01:06:19;;;;;;;1.63;0.47;;;7.30;99.90;;;;;;5107024;28;20454;-79
2023/11/21 01:08:46;;;;;;;0.50;0.40;;;7.40;99.90;;;;;;5107832;28;20838;-80
2023/11/21 01:11:13;;;;;;;2.20;0.50;;;7.40;99.90;;;;;;5109371;28;20528;-81
2023/11/21 01:13:41;;;;;;;1.37;0.50;;;7.40;99.90;;;;;;5109438;28;20440;-81
2023/11/21 01:16:10;;;;;;;0.30;0.30;;;7.40;99.90;;;;;;5112121;28;20451;-81
2023/11/21 01:18:37;;;;;;;2.53;0.57;;;7.40;99.90;;;;;;5109776;28;20471;-80
2023/11/21 01:24:49;;;;;;;0.40;0.30;;;7.30;99.90;;;;;;5109375;28;20459;-80
2023/11/21 01:27:17;;;;;;;0.60;0.60;;;7.20;99.90;;;;;;5107977;28;20875;-80
2023/11/21 01:29:43;;;;;;;0.50;0.30;;;7.20;99.90;;;;;;5108969;28;20460;-81
2023/11/21 01:32:12;;;;;;;0.50;0.50;;;7.10;99.90;;;;;;5111099;28;20462;-81
2023/11/21 01:34:39;;;;;;;0.30;0.30;;;7.20;99.90;;;;;;5109662;28;20785;-81
2023/11/21 01:37:07;;;;;;;0.50;0.50;;;7.10;99.90;;;;;;5110447;28;20511;-80
2023/11/21 01:40:01;;;;;;;0.30;0.30;;;7.20;99.90;;;;;;5109511;28;20483;-79
2023/11/21 01:42:30;;;;;;;4.90;0.90;;;7.20;99.90;;;;;;5111677;28;20452;-80
2023/11/21 01:44:57;;;;;;;0.50;0.40;;;7.20;99.90;;;;;;5112615;28;20471;-81
2023/11/21 01:47:30;;;;;;;0.30;0.30;;;7.20;99.90;;;;;;5111397;28;20447;-81
2023/11/21 02:03:24;;;;;;;2.30;0.70;;;7.00;99.90;;;;;;5085895;28;20448;-81
2023/11/21 02:43:02;;;;;;;1.07;0.50;;;7.00;99.90;;;;;;5111719;28;20814;-81
2023/11/21 02:52:28;;;;;;;0.53;0.37;;;7.00;99.90;;;;;;5052173;28;20450;-81
2023/11/21 03:06:04;;;;;;;0.40;0.37;;;7.00;99.90;;;;;;5112662;28;20562;-82
2023/11/21 03:08:33;;;;;;;0.40;0.30;;;7.00;99.90;;;;;;5115805;28;20463;-82
2023/11/21 03:14:36;;;;;;;0.33;0.33;;;6.90;99.90;;;;;;5101296;28;20438;-81
2023/11/21 04:32:37;;;;;;;0.30;0.30;;;7.20;99.90;;;;;;5120361;28;20479;-80
2023/11/21 04:38:30;;;;;;;0.40;0.30;;;7.10;99.90;;;;;;5048286;28;20522;-81
2023/11/21 04:40:57;;;;;;;0.30;0.20;;;7.70;99.90;;;;;;5116755;28;20877;-80
2023/11/21 04:43:24;;;;;;;0.30;0.30;;;7.10;99.90;;;;;;5116736;28;20495;-81
2023/11/21 04:45:51;;;;;;;0.30;0.30;;;8.90;99.90;;;;;;5115596;28;20471;-81
2023/11/21 04:48:18;;;;;;;2.90;0.30;;;7.20;99.90;;;;;;5112799;28;20452;-81
2023/11/21 04:50:45;;;;;;;0.30;0.30;;;7.90;99.90;;;;;;5111960;28;20452;-80
2023/11/21 04:53:14;;;;;;;0.30;0.20;;;7.00;99.90;;;;;;5113144;28;20452;-80
2023/11/21 04:55:42;;;;;;;0.30;0.30;;;7.00;99.90;;;;;;5116662;28;20440;-81
2023/11/21 04:58:09;;;;;;;2.10;0.40;;;8.10;99.90;;;;;;5116339;28;20452;-81
2023/11/21 05:00:37;;;;;;;0.60;0.37;;;7.00;99.90;;;;;;5115627;28;20482;-81
2023/11/21 05:03:04;;;;;;;0.30;0.30;;;7.00;99.90;;;;;;5114402;28;20427;-81
2023/11/21 05:05:32;;;;;;;0.40;0.30;;;7.00;99.90;;;;;;5114593;28;20475;-81
2023/11/21 05:07:59;;;;;;;0.40;0.30;;;7.10;99.90;;;;;;5115363;28;20459;-81
2023/11/21 05:11:02;;;;;;;0.30;0.30;;;7.10;99.90;;;;;;5116388;28;20444;-81
2023/11/21 05:13:29;;;;;;;0.30;0.30;;;7.10;99.90;;;;;;5114648;28;20436;-81
2023/11/21 05:15:56;;;;;;;0.70;0.40;;;7.10;99.90;;;;;;5114885;28;20440;-80
2023/11/21 05:18:23;;;;;;;0.47;0.40;;;7.10;99.90;;;;;;5113158;28;20451;-80
2023/11/21 05:20:50;;;;;;;0.40;0.30;;;7.50;99.90;;;;;;5112611;28;20440;-80
2023/11/21 05:23:19;;;;;;;0.30;0.20;;;7.10;99.90;;;;;;5113117;28;20497;-81
2023/11/21 05:29:14;;;;;;;0.40;0.30;;;7.10;99.90;;;;;;5104034;28;20962;-81
2023/11/21 05:31:41;;;;;;;1.77;0.50;;;7.20;99.90;;;;;;5111792;28;20508;-81
2023/11/21 05:34:08;;;;;;;0.30;0.30;;;7.10;99.90;;;;;;5112832;28;20448;-81
2023/11/21 05:49:36;;;;;;;0.80;0.63;;;6.90;99.90;;;;;;5110049;22;20892;-91
2023/11/21 05:52:05;;;;;;;0.30;0.20;;;6.90;99.90;;;;;;5075121;28;20437;-89
2023/11/21 05:54:31;;;;;;;0.40;0.40;;;6.90;99.90;;;;;;5075168;28;20924;-89
2023/11/21 05:56:58;;;;;;;0.67;0.30;;;6.90;99.90;;;;;;5075561;28;20436;-89
2023/11/21 05:59:25;;;;;;;2.20;0.50;;;7.00;99.90;;;;;;5075920;28;20461;-89
2023/11/21 06:01:52;;;;;;;0.30;0.30;;;7.00;99.90;;;;;;5075501;28;20448;-89
2023/11/21 06:04:18;;;;;;;0.30;0.30;;;7.00;99.90;;;;;;5075075;28;20436;-89
2023/11/21 06:06:46;;;;;;;0.30;0.30;;;7.10;99.90;;;;;;5074700;28;20453;-89
2023/11/21 06:09:13;;;;;;;0.50;0.30;;;7.10;99.90;;;;;;5074642;28;20444;-89
2023/11/21 06:11:40;;;;;;;0.30;0.30;;;7.10;99.90;;;;;;5074920;28;20463;-89
2023/11/21 06:14:09;;;;;;;0.30;0.20;;;7.00;99.90;;;;;;5074620;28;20449;-89
2023/11/21 06:16:36;;;;;;;0.30;0.30;;;7.00;99.90;;;;;;5074627;28;20456;-89
2023/11/21 06:19:02;;;;;;;0.30;0.30;;;7.00;99.90;;;;;;5073726;28;20453;-89
2023/11/21 06:21:29;;;;;;;0.30;0.30;;;7.00;99.90;;;;;;5074777;28;20441;-89
2023/11/21 06:23:57;;;;;;;0.40;0.40;;;7.10;99.90;;;;;;5074811;28;20472;-89
2023/11/21 06:26:25;;;;;;;0.37;0.30;;;7.10;99.90;;;;;;5074447;28;20530;-89
2023/11/21 06:28:52;;;;;;;0.43;0.33;;;7.00;99.90;;;;;;5074615;28;20441;-89
2023/11/21 06:31:19;;;;;;;0.40;0.40;;;7.00;99.90;;;;;;5074612;28;20460;-89
2023/11/21 06:33:46;;;;;;;0.37;0.37;;;7.10;99.90;;;;;;5074735;28;20524;-88
2023/11/21 06:36:13;;;;;;;0.30;0.30;;;7.10;99.90;;;;;;5074463;28;20445;-89
2023/11/21 06:38:40;;;;;;;0.37;0.33;;;7.70;99.90;;;;;;5074136;28;20816;-89
2023/11/21 06:41:08;;;;;;;0.30;0.30;;;7.20;99.90;;;;;;5074001;28;20979;-89
2023/11/21 06:43:35;;;;;;;0.30;0.30;;;7.10;99.90;;;;;;5074334;28;20433;-89
2023/11/21 06:46:04;;;;;;;0.30;0.30;;;7.10;99.90;;;;;;5074432;28;20480;-89
2023/11/21 06:48:31;;;;;;;0.30;0.30;;;8.60;99.90;;;;;;5074377;28;20478;-89
2023/11/21 06:50:57;;;;;;;0.30;0.30;;;7.10;99.90;;;;;;5073960;28;20514;-88
2023/11/21 06:53:24;;;;;;;0.40;0.40;;;7.10;99.90;;;;;;5073818;28;20991;-89
2023/11/21 06:55:51;;;;;;;0.30;0.27;;;7.10;99.90;;;;;;5073915;28;20448;-89
2023/11/21 06:58:19;;;;;;;0.40;0.40;;;7.00;99.90;;;;;;5074027;28;20441;-89
2023/11/21 07:00:48;;;;;;;0.40;0.40;;;7.00;99.90;;;;;;5095357;28;20516;-87
2023/11/21 07:03:15;;;;;;;0.40;0.40;;;7.10;99.90;;;;;;5075946;28;20430;-88
2023/11/21 07:05:42;;;;;;;0.40;0.40;;;7.00;99.90;;;;;;5073874;28;20473;-88
2023/11/21 07:08:08;;;;;;;0.30;0.30;;;7.10;99.90;;;;;;5074099;28;20448;-88
2023/11/21 07:10:36;;;;;;;0.93;0.83;;;7.20;99.90;;;;;;5074111;28;20464;-88
2023/11/21 07:13:03;;;;;;;0.50;0.50;;;7.20;99.90;;;;;;5073814;28;20560;-89
2023/11/21 07:15:31;;;;;;;0.50;0.40;;;7.20;99.90;;;;;;5073881;28;20534;-88
2023/11/21 07:17:58;;;;;;;1.03;0.50;;;7.20;99.90;;;;;;5074025;28;20503;-88
2023/11/21 07:20:24;;;;;;;0.50;0.50;;;7.20;99.90;;;;;;5073802;28;20926;-88
2023/11/21 07:22:51;;;;;;;0.40;0.40;;;7.20;99.90;;;;;;5073735;28;20456;-88
2023/11/21 07:25:18;;;;;;;0.30;0.30;;;7.20;99.90;;;;;;5073826;28;20480;-89
2023/11/21 07:27:45;;;;;;;0.33;0.30;;;7.20;99.90;;;;;;5073928;28;20440;-89
2023/11/21 07:30:13;;;;;;;0.50;0.50;;;7.20;99.90;;;;;;5072953;28;20449;-89
2023/11/21 07:32:41;;;;;;;0.90;0.50;;;7.20;99.90;;;;;;5073975;28;20818;-88
2023/11/21 07:35:09;;;;;;;1.90;0.60;;;7.20;99.90;;;;;;5073378;28;20814;-89
2023/11/21 07:37:35;;;;;;;0.67;0.67;;;7.10;99.90;;;;;;5073740;28;20812;-89
2023/11/21 07:40:03;;;;;;;0.50;0.50;;;7.20;99.90;;;;;;5073549;28;20472;-89
2023/11/21 07:42:29;;;;;;;0.43;0.43;;;7.30;99.90;;;;;;5073406;28;20937;-88
2023/11/21 07:44:56;;;;;;;0.30;0.30;;;7.30;99.90;;;;;;5073721;28;20434;-90
2023/11/21 07:47:27;;;;;;;0.30;0.30;;;7.40;99.90;;;;;;5073632;28;20472;-90
2023/11/21 07:49:55;;;;;;;0.30;0.30;;;7.50;99.90;;;;;;5073410;28;20571;-89
2023/11/21 07:52:22;;;;;;;7.63;0.50;;;7.50;99.90;;;;;;5073317;28;20441;-90
2023/11/21 07:54:49;;;;;;;0.50;0.50;;;7.50;99.90;;;;;;5073483;28;20448;-90
2023/11/21 07:57:16;;;;;;;0.47;0.40;;;8.40;99.90;;;;;;5073398;28;20445;-90
2023/11/21 07:59:42;;;;;;;0.90;0.67;;;7.60;99.90;;;;;;5073408;28;20460;-90
2023/11/21 08:02:09;;;;;;;0.70;0.70;;;7.60;99.90;;;;;;5073314;28;20444;-89
2023/11/21 08:04:36;;;;;;;0.80;0.30;;;7.90;99.90;;;;;;5073065;28;20490;-89
2023/11/21 08:07:04;;;;;;;0.40;0.40;;;7.60;99.90;;;;;;5073356;28;20472;-89
2023/11/21 08:09:32;;;;;;;0.40;0.40;;;7.70;99.90;;;;;;5073241;28;20457;-86
2023/11/21 08:12:00;;;;;;;1.43;0.67;;;7.70;99.90;;;;;;5073010;28;20474;-86
2023/11/21 08:14:27;;;;;;;0.50;0.40;;;7.70;99.90;;;;;;5073283;28;20451;-86
2023/11/21 08:16:57;;;;;;;0.40;0.40;;;7.70;99.90;;;;;;5073341;28;20420;-88
2023/11/21 08:19:24;;;;;;;0.30;0.30;;;7.70;99.90;;;;;;5074493;28;20468;-87
2023/11/21 08:21:52;;;;;;;0.40;0.40;;;7.80;99.90;;;;;;5073679;28;20797;-87
2023/11/21 08:24:20;;;;;;;0.43;0.30;;;7.90;99.90;;;;;;5073144;28;20451;-87
2023/11/21 08:26:47;;;;;;;0.40;0.30;;;8.50;99.90;;;;;;5073065;28;20990;-87
2023/11/21 08:29:13;;;;;;;0.30;0.20;;;8.00;99.90;;;;;;5072839;28;20410;-87
2023/11/21 08:31:41;;;;;;;0.60;0.40;;;8.10;99.90;;;;;;5073140;28;20436;-87
2023/11/21 08:34:08;;;;;;;0.30;0.30;;;8.20;99.90;;;;;;5073171;28;20444;-87
2023/11/21 08:36:35;;;;;;;0.30;0.30;;;8.30;99.90;;;;;;5073116;28;20452;-87
2023/11/21 08:39:02;;;;;;;0.40;0.30;;;8.40;99.90;;;;;;5072598;28;20436;-86
2023/11/21 08:41:30;;;;;;;0.30;0.30;;;8.40;99.90;;;;;;5073586;28;20830;-86
2023/11/21 08:43:58;;;;;;;1.03;0.40;;;8.50;99.90;;;;;;5076742;28;20490;-87
2023/11/21 08:46:25;;;;;;;0.40;0.40;;;8.60;99.90;;;;;;5076845;28;20477;-87
2023/11/21 08:48:53;;;;;;;1.03;0.33;;;8.70;99.90;;;;;;5076698;28;20452;-87
2023/11/21 08:51:20;;;;;;;0.40;0.40;;;8.70;99.90;;;;;;5076300;28;21034;-86
2023/11/21 08:53:47;;;;;;;0.70;0.40;;;8.70;99.90;;;;;;5076451;28;20513;-87
2023/11/21 08:56:14;;;;;;;0.47;0.47;;;8.70;99.90;;;;;;5076357;28;20941;-86
2023/11/21 08:58:43;;;;;;;0.40;0.30;;;8.50;99.90;;;;;;5076299;28;20484;-87
2023/11/21 09:01:09;;;;;;;0.30;0.30;;;8.60;99.90;;;;;;5076315;28;20476;-86
2023/11/21 09:03:36;;;;;;;0.40;0.30;;;8.60;99.90;;;;;;5076469;28;20455;-87
2023/11/21 09:06:03;;;;;;;0.30;0.30;;;8.70;99.90;;;;;;5076254;28;20477;-87
2023/11/21 09:08:30;;;;;;;0.43;0.40;;;8.70;99.90;;;;;;5076774;28;20476;-87
2023/11/21 09:10:57;;;;;;;0.67;0.40;;;8.60;99.90;;;;;;5076267;28;20461;-87
2023/11/21 09:13:24;;;;;;;0.40;0.40;;;8.70;99.90;;;;;;5086081;28;20429;-85
2023/11/21 09:15:52;;;;;;;0.50;0.40;;;8.70;99.90;;;;;;5087201;28;20456;-86
2023/11/21 09:18:19;;;;;;;6.23;0.67;;;8.80;99.90;;;;;;5078031;28;20833;-86
2023/11/21 09:20:46;;;;;;;0.40;0.40;;;8.70;99.90;;;;;;5077433;28;20471;-86
2023/11/21 09:23:13;;;;;;;0.70;0.37;;;8.80;99.90;;;;;;5077554;28;20456;-86
2023/11/21 09:25:39;;;;;;;1.27;0.50;;;8.80;99.90;;;;;;5076347;28;20440;-86
2023/11/21 09:28:08;;;;;;;0.60;0.60;;;9.50;99.90;;;;;;5075684;28;20447;-86
2023/11/21 09:30:35;;;;;;;0.50;0.50;;;8.80;99.90;;;;;;5075962;28;20527;-87
2023/11/21 09:33:04;;;;;;;0.37;0.30;;;8.80;99.90;;;;;;5075861;28;20452;-86
2023/11/21 09:35:31;;;;;;;0.30;0.30;;;8.90;99.90;;;;;;5076001;28;20498;-86
2023/11/21 09:37:58;;;;;;;0.40;0.30;;;9.10;99.90;;;;;;5075722;28;20447;-86
2023/11/21 09:40:26;;;;;;;0.30;0.30;;;9.20;99.90;;;;;;5075525;28;20564;-87
2023/11/21 09:42:56;;;;;;;0.40;0.40;;;9.30;99.90;;;;;;5075857;28;20539;-87
2023/11/21 09:45:26;;;;;;;0.30;0.30;;;9.40;99.90;;;;;;5075582;28;20443;-87
2023/11/21 09:47:55;;;;;;;0.30;0.30;;;9.40;99.90;;;;;;5075445;28;20465;-88
2023/11/21 09:50:24;;;;;;;0.30;0.30;;;9.40;99.90;;;;;;5075235;28;20897;-88
2023/11/21 09:52:57;;;;;;;0.63;0.50;;;9.30;99.90;;;;;;5075294;28;20463;-88
2023/11/21 09:55:28;;;;;;;0.40;0.30;;;9.30;99.90;;;;;;5075167;28;20441;-88
2023/11/21 09:57:56;;;;;;;0.40;0.30;;;9.30;99.90;;;;;;5074962;28;20897;-87
2023/11/21 10:00:24;;;;;;;0.30;0.30;;;9.20;99.90;;;;;;5075161;28;20469;-88
2023/11/21 10:02:52;;;;;;;0.30;0.30;;;9.00;99.90;;;;;;5075668;28;20425;-88
2023/11/21 10:05:22;;;;;;;0.40;0.37;;;8.90;99.90;;;;;;5075091;28;20444;-87
2023/11/21 10:07:51;;;;;;;0.40;0.30;;;8.80;99.90;;;;;;5074984;28;20564;-86
2023/11/21 10:10:21;;;;;;;0.40;0.30;;;8.70;99.90;;;;;;5075000;28;20457;-86
2023/11/21 10:12:53;;;;;;;0.87;0.40;;;8.70;99.90;;;;;;5075047;28;20436;-86
2023/11/21 10:15:22;;;;;;;0.40;0.40;;;8.60;99.90;;;;;;5075174;28;20438;-87
2023/11/21 10:17:52;;;;;;;0.40;0.30;;;8.60;99.90;;;;;;5074779;28;20437;-87
2023/11/21 10:20:20;;;;;;;0.40;0.40;;;8.60;99.90;;;;;;5074861;28;20464;-87
2023/11/21 10:22:47;;;;;;;0.50;0.30;;;8.60;99.90;;;;;;5074720;28;20821;-87
2023/11/21 10:25:15;;;;;;;0.50;0.50;;;8.60;99.90;;;;;;5074722;28;20440;-89
2023/11/21 10:27:43;;;;;;;0.60;0.60;;;8.60;99.90;;;;;;5074619;28;20564;-87
2023/11/21 10:30:11;;;;;;;1.23;0.40;;;8.60;99.90;;;;;;5074593;28;20480;-88
2023/11/21 10:32:40;;;;;;;0.40;0.30;;;8.60;99.90;;;;;;5074303;28;20957;-87
2023/11/21 10:35:09;;;;;;;0.80;0.50;;;8.70;99.90;;;;;;5074322;28;20502;-88
2023/11/21 10:37:39;;;;;;;0.40;0.40;;;8.70;99.90;;;;;;5074161;28;20457;-87
2023/11/21 10:40:07;;;;;;;0.60;0.50;;;8.80;99.90;;;;;;5074339;28;20473;-87
2023/11/21 10:42:35;;;;;;;0.80;0.60;;;8.80;99.90;;;;;;5074329;28;20444;-88
2023/11/21 10:45:03;;;;;;;0.30;0.30;;;8.70;99.90;;;;;;5074388;28;20813;-87
2023/11/21 10:47:32;;;;;;;0.40;0.30;;;8.70;99.90;;;;;;5074312;28;20487;-88
2023/11/21 10:50:01;;;;;;;0.50;0.50;;;8.70;99.90;;;;;;5073803;28;20518;-88
2023/11/21 10:52:28;;;;;;;0.53;0.50;;;8.80;99.90;;;;;;5074388;28;20499;-88
2023/11/21 10:54:56;;;;;;;0.40;0.40;;;8.80;99.90;;;;;;5074174;28;20447;-87
2023/11/21 10:57:26;;;;;;;0.67;0.60;;;8.80;99.90;;;;;;5074249;28;20441;-88
2023/11/21 10:59:56;;;;;;;1.53;0.40;;;8.80;99.90;;;;;;5073750;28;20461;-87
2023/11/21 11:02:27;;;;;;;0.37;0.30;;;9.00;99.90;;;;;;5074380;28;20504;-88
2023/11/21 11:04:55;;;;;;;0.90;0.40;;;8.80;99.90;;;;;;5073558;28;20430;-88
2023/11/21 11:07:26;;;;;;;0.40;0.40;;;8.90;99.90;;;;;;5073973;28;20559;-87
2023/11/21 11:09:54;;;;;;;1.13;1.13;;;8.90;99.90;;;;;;5073864;28;20817;-87
2023/11/21 11:12:21;;;;;;;0.40;0.40;;;9.00;99.90;;;;;;5073939;28;20445;-88
2023/11/21 11:14:49;;;;;;;0.40;0.40;;;9.00;99.90;;;;;;5074551;28;20448;-87
2023/11/21 11:17:20;;;;;;;0.60;0.50;;;9.10;99.90;;;;;;5073811;28;20508;-88
2023/11/21 11:19:47;;;;;;;0.87;0.87;;;9.60;99.90;;;;;;5073929;28;20556;-87
2023/11/21 11:22:30;;;;;;;0.50;0.50;;;9.10;99.90;;;;;;5078789;28;20436;-88
2023/11/21 11:25:13;;;;;;;2.23;0.70;;;9.20;99.90;;;;;;5090598;28;20421;-85
2023/11/21 11:27:48;;;;;;;1.63;0.60;;;9.20;99.90;;;;;;5074254;28;20469;-87
2023/11/21 11:30:25;;;;;;;0.40;0.33;;;9.20;99.90;;;;;;5073858;28;20832;-87
2023/11/21 11:32:59;;;;;;;1.73;0.80;;;9.20;99.90;;;;;;5074533;28;20445;-87
2023/11/21 11:35:35;;;;;;;4.73;0.47;;;9.20;99.90;;;;;;5073715;28;20504;-88
2023/11/21 11:38:02;;;;;;;0.60;0.57;;;9.20;99.90;;;;;;5073653;28;20425;-87
2023/11/21 11:40:41;;;;;;;0.50;0.33;;;9.20;99.90;;;;;;5073669;28;20467;-88
2023/11/21 11:43:08;;;;;;;0.67;0.67;;;9.20;99.90;;;;;;5073618;28;20425;-88
2023/11/21 11:45:41;;;;;;;0.50;0.43;;;9.10;99.90;;;;;;5073631;28;20445;-88
2023/11/21 11:48:13;;;;;;;0.40;0.40;;;9.00;99.90;;;;;;5073466;28;20469;-88
2023/11/21 11:51:03;;;;;;;0.40;0.30;;;9.00;99.90;;;;;;5098135;22;20485;-80
2023/11/21 11:53:36;;;;;;;0.47;0.47;;;9.10;99.90;;;;;;5076775;28;20487;-80
2023/11/21 11:56:22;;;;;;;1.23;0.60;;;9.60;99.90;;;;;;5075731;28;20401;-81
2023/11/21 11:58:49;;;;;;;0.40;0.40;;;9.20;99.90;;;;;;5075242;28;20432;-80
2023/11/21 12:01:18;;;;;;;0.40;0.33;;;9.30;99.90;;;;;;5074416;28;20473;-80
2023/11/21 12:04:30;;;;;;;0.40;0.40;;;9.30;99.90;;;;;;5074492;28;20480;-80
2023/11/21 12:07:02;;;;;;;1.90;1.13;;;9.20;99.90;;;;;;5074807;28;20492;-80
2023/11/21 12:09:31;;;;;;;1.10;0.57;;;9.10;99.90;;;;;;5075847;28;20441;-80
2023/11/21 12:11:58;;;;;;;0.70;0.60;;;9.10;99.90;;;;;;5075881;28;20465;-80
2023/11/21 12:14:25;;;;;;;0.50;0.50;;;9.10;99.90;;;;;;5076020;28;20520;-80
2023/11/21 12:16:52;;;;;;;0.50;0.40;;;9.10;99.90;;;;;;5079102;28;20429;-80
2023/11/21 12:19:22;;;;;;;0.90;0.90;;;9.00;99.90;;;;;;5080201;28;20955;-81
2023/11/21 12:21:50;;;;;;;0.60;0.60;;;9.00;99.90;;;;;;5080170;28;20461;-80
2023/11/21 12:24:17;;;;;;;1.23;0.50;;;8.90;99.90;;;;;;5080847;28;20929;-81
2023/11/21 12:26:44;;;;;;;0.40;0.40;;;8.90;99.90;;;;;;5081253;28;20480;-81
2023/11/21 12:29:12;;;;;;;0.90;0.57;;;8.90;99.90;;;;;;5080085;28;20437;-81
2023/11/21 12:31:39;;;;;;;1.67;0.50;;;8.90;99.90;;;;;;5081898;28;20999;-81
2023/11/21 12:34:06;;;;;;;0.63;0.63;;;9.70;99.90;;;;;;5082296;28;20510;-82
2023/11/21 12:36:36;;;;;;;1.27;0.87;;;9.00;99.90;;;;;;5081377;28;20493;-81
2023/11/21 12:39:03;;;;;;;0.53;0.53;;;9.00;99.90;;;;;;5080063;28;20448;-82
2023/11/21 12:41:31;;;;;;;1.50;1.30;;;9.00;99.90;;;;;;5080975;28;20469;-82
2023/11/21 12:43:58;;;;;;;0.67;0.50;;;9.00;99.90;;;;;;5080042;28;20497;-82
2023/11/21 12:46:29;;;;;;;1.13;0.70;;;9.00;99.90;;;;;;5080073;28;20433;-82
2023/11/21 12:48:56;;;;;;;1.73;0.80;;;9.10;99.90;;;;;;5079995;28;20429;-82
2023/11/21 12:51:23;;;;;;;0.40;0.40;;;9.20;99.90;;;;;;5078884;28;20502;-82
2023/11/21 12:53:51;;;;;;;0.80;0.67;;;9.20;99.90;;;;;;5079142;28;20816;-82
2023/11/21 12:56:23;;;;;;;1.23;0.40;;;9.20;99.90;;;;;;5079025;28;20455;-82
2023/11/21 12:58:51;;;;;;;0.90;0.90;;;9.20;99.90;;;;;;5078763;28;20417;-82
2023/11/21 13:01:19;;;;;;;0.90;0.87;;;9.20;99.90;;;;;;5078728;28;20453;-82
2023/11/21 13:03:50;;;;;;;0.50;0.50;;;9.20;99.90;;;;;;5078497;28;20449;-82
2023/11/21 13:06:18;;;;;;;0.57;0.43;;;9.20;99.90;;;;;;5078589;28;20437;-82
2023/11/21 13:08:46;;;;;;;0.60;0.60;;;9.10;99.90;;;;;;5078528;28;20484;-82
2023/11/21 13:11:15;;;;;;;0.47;0.47;;;9.00;99.90;;;;;;5078329;28;20463;-82
2023/11/21 13:13:43;;;;;;;0.77;0.77;;;9.00;99.90;;;;;;5077597;28;20793;-83
2023/11/21 13:16:10;;;;;;;0.50;0.50;;;9.10;99.90;;;;;;5077749;28;20449;-83
2023/11/21 13:18:39;;;;;;;1.30;0.67;;;9.10;99.90;;;;;;5077797;28;20784;-82
2023/11/21 13:21:12;;;;;;;0.40;0.40;;;9.20;99.90;;;;;;5078063;28;20552;-82
2023/11/21 13:23:40;;;;;;;1.10;0.53;;;9.30;99.90;;;;;;5078466;28;20824;-82
2023/11/21 13:26:08;;;;;;;1.43;0.67;;;9.30;99.90;;;;;;5077963;28;20937;-83
2023/11/21 13:28:37;;;;;;;1.37;0.90;;;9.50;99.90;;;;;;5077218;28;20488;-82
2023/11/21 13:31:20;;;;;;;2.80;1.03;;;9.50;99.90;;;;;;5077843;28;20465;-82
2023/11/21 13:33:51;;;;;;;1.00;1.00;;;9.60;99.90;;;;;;5077935;28;20813;-82
2023/11/21 13:36:22;;;;;;;5.50;1.40;;;9.50;99.90;;;;;;5078305;28;20524;-83
2023/11/21 13:38:49;;;;;;;2.23;1.43;;;9.40;99.90;;;;;;5078081;28;20429;-83
2023/11/21 13:41:17;;;;;;;3.90;0.70;;;10.00;99.90;;;;;;5077663;28;20983;-82
2023/11/21 13:43:52;;;;;;;1.33;0.93;;;9.20;99.90;;;;;;5078152;28;20921;-82
2023/11/21 13:46:21;;;;;;;0.80;0.70;;;9.70;99.90;;;;;;5077686;28;20439;-82
2023/11/21 13:48:51;;;;;;;1.47;0.70;;;9.20;99.90;;;;;;5078111;28;20496;-82
2023/11/21 13:51:18;;;;;;;0.80;0.70;;;9.20;99.90;;;;;;5077460;28;20495;-83
2023/11/21 13:53:47;;;;;;;0.83;0.50;;;9.20;99.90;;;;;;5077635;28;20502;-82
2023/11/21 13:56:18;;;;;;;0.93;0.93;;;9.20;99.90;;;;;;5077968;28;20945;-82
2023/11/21 13:58:51;;;;;;;3.50;0.67;;;9.20;99.90;;;;;;5078192;28;20875;-82
2023/11/21 14:01:41;;;;;;;1.17;0.40;;;9.00;99.90;;;;;;5077671;28;20469;-82
2023/11/21 14:04:18;;;;;;;0.30;0.23;;;8.90;99.90;;;;;;5077493;28;20459;-82
2023/11/21 14:06:48;;;;;;;2.73;0.40;;;9.40;99.90;;;;;;5077356;28;20796;-82
2023/11/21 14:09:22;;;;;;;0.60;0.40;;;8.90;99.90;;;;;;5076938;28;20472;-82
2023/11/21 14:11:53;;;;;;;0.40;0.30;;;8.90;99.90;;;;;;5076763;28;20981;-82
2023/11/21 14:14:22;;;;;;;0.50;0.30;;;8.90;99.90;;;;;;5077609;28;20469;-82
2023/11/21 14:16:49;;;;;;;0.30;0.30;;;8.90;99.90;;;;;;5077374;28;20449;-82
2023/11/21 14:19:16;;;;;;;0.40;0.30;;;9.00;99.90;;;;;;5076529;28;20449;-82
2023/11/21 14:21:44;;;;;;;0.53;0.43;;;9.00;99.90;;;;;;5076528;28;20461;-85
2023/11/21 14:24:12;;;;;;;0.40;0.30;;;9.10;99.90;;;;;;5077039;28;20445;-83
2023/11/21 14:26:40;;;;;;;0.50;0.50;;;9.00;99.90;;;;;;5077265;28;20805;-82
2023/11/21 14:29:08;;;;;;;0.40;0.40;;;9.00;99.90;;;;;;5076333;28;20483;-82
2023/11/21 14:31:36;;;;;;;0.60;0.60;;;8.90;99.90;;;;;;5076586;28;20511;-82
2023/11/21 14:34:06;;;;;;;0.40;0.37;;;8.80;99.90;;;;;;5077195;28;20945;-82
2023/11/21 14:36:32;;;;;;;0.40;0.40;;;8.70;99.90;;;;;;5076760;28;20486;-82
2023/11/21 14:38:59;;;;;;;0.50;0.50;;;8.70;99.90;;;;;;5076234;28;20528;-82
2023/11/21 14:41:27;;;;;;;1.30;1.10;;;8.60;99.90;;;;;;5076574;28;20961;-83
2023/11/21 14:43:55;;;;;;;0.40;0.30;;;8.70;99.90;;;;;;5078230;28;20536;-83
2023/11/21 14:46:22;;;;;;;0.50;0.50;;;8.60;99.90;;;;;;5080287;28;20441;-82
2023/11/21 14:48:58;;;;;;;0.60;0.60;;;8.60;99.90;;;;;;5077215;28;20857;-82
2023/11/21 14:51:31;;;;;;;0.60;0.60;;;8.60;99.90;;;;;;5077241;28;20488;-82
2023/11/21 14:54:06;;;;;;;1.67;0.80;;;8.60;99.90;;;;;;5079524;28;20440;-82
2023/11/21 14:56:34;;;;;;;0.33;0.30;;;8.60;99.90;;;;;;5079307;28;20862;-83
2023/11/21 14:59:08;;;;;;;0.37;0.37;;;8.60;99.90;;;;;;5080243;28;20440;-83
2023/11/21 15:01:53;;;;;;;0.57;0.40;;;8.70;99.90;;;;;;5078116;28;20960;-82
2023/11/21 15:04:31;;;;;;;0.50;0.50;;;8.60;99.90;;;;;;5076796;28;20983;-82
2023/11/21 15:06:58;;;;;;;0.93;0.77;;;8.60;99.90;;;;;;5077662;28;20470;-82
2023/11/21 15:09:36;;;;;;;3.00;1.93;;;8.60;99.90;;;;;;5077036;28;20512;-82
2023/11/21 15:12:12;;;;;;;1.13;0.97;;;8.60;99.90;;;;;;5077422;28;20455;-82
2023/11/21 15:14:39;;;;;;;1.37;1.27;;;8.60;99.90;;;;;;5077312;28;20431;-82
2023/11/21 15:17:07;;;;;;;0.90;0.80;;;8.60;99.90;;;;;;5076758;28;20486;-82
2023/11/21 15:19:35;;;;;;;0.83;0.83;;;8.60;99.90;;;;;;5077647;28;20448;-83
2023/11/21 15:22:02;;;;;;;1.93;1.10;;;8.60;99.90;;;;;;5077514;28;20428;-82
2023/11/21 15:24:29;;;;;;;1.10;0.63;;;8.60;99.90;;;;;;5077916;28;20432;-82
2023/11/21 15:26:56;;;;;;;0.90;0.80;;;8.60;99.90;;;;;;5077380;28;20429;-82
2023/11/21 15:29:24;;;;;;;0.97;0.70;;;8.60;99.90;;;;;;5078442;28;20486;-81
2023/11/21 15:31:54;;;;;;;0.73;0.73;;;8.50;99.90;;;;;;5077356;28;20468;-81
2023/11/21 15:34:21;;;;;;;0.60;0.60;;;8.60;99.90;;;;;;5076952;28;20456;-81
2023/11/21 15:36:52;;;;;;;2.83;1.13;;;8.60;99.90;;;;;;5078134;28;20460;-81
2023/11/21 15:39:21;;;;;;;1.53;0.60;;;8.60;99.90;;;;;;5076399;28;20434;-81
2023/11/21 15:41:48;;;;;;;0.57;0.57;;;8.50;99.90;;;;;;5075889;28;20514;-80
2023/11/21 15:44:14;;;;;;;0.77;0.50;;;8.50;99.90;;;;;;5076731;28;20433;-80
2023/11/21 15:46:42;;;;;;;0.50;0.50;;;8.40;99.90;;;;;;5075692;28;20433;-81
2023/11/21 15:49:12;;;;;;;2.57;1.13;;;8.30;99.90;;;;;;5076269;28;20485;-80
2023/11/21 15:51:39;;;;;;;1.57;1.27;;;8.30;99.90;;;;;;5081009;28;20847;-80
2023/11/21 15:54:08;;;;;;;1.10;1.00;;;8.20;99.90;;;;;;5083725;28;20505;-80
2023/11/21 15:56:36;;;;;;;1.97;1.77;;;8.20;99.90;;;;;;5083533;28;20528;-81
2023/11/21 15:59:03;;;;;;;4.47;2.07;;;8.10;99.90;;;;;;5083883;28;20445;-80
2023/11/21 16:01:30;;;;;;;1.07;0.90;;;8.00;99.90;;;;;;5084578;28;20476;-80